RKTN/TAE METAR and TAF weather

Enter ICAO airport designator
Station Type Date Time Source
RKTN METAR 2018/12/15 22:00 UTC NOAA

RKTN 152200Z 33002KT CAVOK M01/M09 Q1023


Station Type Date Time Source
RKTN Decoded METAR 2018/12/15 22:00 UTC NOAA

Taegu Ab, Korea, South (RKTN) 35-54N 128-39E 37M
Dec 15, 2018 - 05:00 PM EST / 2018.12.15 2200 UTC
Wind: from the NNW (330 degrees) at 2 MPH (2 KT):0
Visibility: greater than 7 mile(s):0
Temperature: 30 F (-1 C)
Dew Point: 15 F (-9 C)
Relative Humidity: 54%
Pressure (altimeter): 30.21 in. Hg (1023 hPa)
ob: RKTN 152200Z 33002KT CAVOK M01/M09 Q1023
cycle: 22

Station Type Date Time Source
RKTN TAF 2018/12/15 18:09 UTC NOAA

TAF RKTN 151700Z 1518/1624 31006KT CAVOK TNM06/1521Z TX05/1607Z


Example: see airport list